Jiuquan, China
Current Conditions -  °F | °C
As of 2:00 AM on Tuesday 21 Oct 2014 (Local Time) from ZLLL Reporting Station
Haze Haze  
Wind Chill: 36°   Ceiling: Unl
Heat Index: 36°   Visibility: 2mi
Dew Point: 34°   Wind: 2mph
Humidity: 93%   Direction: NA
Pressure: 30.3"   Gusts: NA
Location:  39.75°N, 98.51°E
Report Text: ZLLL 201800Z VRB01MPS 3200 BR NSC 02/01 Q1026 NOSIG
Loading
Personal Weather Stations






























Interactive Weather Map
Tropical Storm Tracking
New forecast layout! Learn more

10-Day Weather Forecast

Advertisements
Track Severe Weather on mobile